Time;durP1;ratioP1;P1;durP2;ratioP2;P2;SDS_P1;SDS_P2;PMS_P1;PMS_P2;Temp;Humidity;BMP_temperature;BMP_pressure;BME280_temperature;BME280_humidity;BME280_pressure;Samples;Min_cycle;Max_cycle;Signal;HPM_P1;HPM_P2
2023/05/14 00:00:15;;;;;;;8.93;7.50;;;;;;;9.26;100.00;101037.44;690260;28;1298;-62
2023/05/14 00:00:35;;;;;;;9.48;7.90;;;;;;;9.23;100.00;101033.94;689965;28;1405;-62
2023/05/14 00:00:55;;;;;;;9.60;7.47;;;;;;;9.21;100.00;101028.72;687818;28;1757;-63
2023/05/14 00:01:16;;;;;;;11.52;7.90;;;;;;;9.25;100.00;101034.81;688266;28;4522;-62
2023/05/14 00:01:36;;;;;;;9.23;7.77;;;;;;;9.31;100.00;101034.88;686881;28;1293;-62
2023/05/14 00:01:56;;;;;;;9.33;7.50;;;;;;;9.34;100.00;101034.88;685100;28;1678;-62
2023/05/14 00:02:17;;;;;;;9.45;7.32;;;;;;;9.28;100.00;101027.88;686676;28;1195;-62
2023/05/14 00:02:37;;;;;;;8.87;7.50;;;;;;;9.25;100.00;101027.00;687240;28;1329;-62
2023/05/14 00:02:58;;;;;;;9.00;7.63;;;;;;;9.24;100.00;101033.09;685223;28;1434;-63
2023/05/14 00:03:18;;;;;;;9.70;8.00;;;;;;;9.19;100.00;101030.44;686884;28;1140;-63
2023/05/14 00:03:39;;;;;;;9.48;7.97;;;;;;;9.19;100.00;101030.44;686979;28;1306;-62
2023/05/14 00:04:00;;;;;;;9.63;7.47;;;;;;;9.19;100.00;101031.31;685669;28;1514;-62
2023/05/14 00:04:21;;;;;;;9.20;7.23;;;;;;;9.18;100.00;101029.56;686311;28;4377;-62
2023/05/14 00:04:41;;;;;;;8.57;7.57;;;;;;;9.16;100.00;101031.28;686902;28;2093;-62
2023/05/14 00:05:01;;;;;;;8.88;7.50;;;;;;;9.06;100.00;101031.22;685333;28;1517;-62
2023/05/14 00:05:22;;;;;;;8.93;7.67;;;;;;;9.07;100.00;101025.13;686693;28;1216;-62
2023/05/14 00:05:42;;;;;;;8.65;7.40;;;;;;;9.04;100.00;101031.19;686287;28;1259;-62
2023/05/14 00:06:03;;;;;;;9.47;7.50;;;;;;;9.04;100.00;101028.59;685222;28;1510;-62
2023/05/14 00:06:23;;;;;;;9.10;7.75;;;;;;;9.12;100.00;101034.72;683856;28;1308;-62
2023/05/14 00:06:46;;;;;;;11.43;8.50;;;;;;;9.20;100.00;101032.19;684219;28;1288;-62
2023/05/14 00:07:06;;;;;;;9.15;7.50;;;;;;;9.20;100.00;101032.19;684843;28;4416;-62
2023/05/14 00:07:29;;;;;;;9.37;7.53;;;;;;;9.15;100.00;101028.66;686275;28;1358;-62
2023/05/14 00:07:51;;;;;;;10.38;7.75;;;;;;;9.12;100.00;101032.13;685208;28;1781;-62
2023/05/14 00:08:12;;;;;;;9.88;7.93;;;;;;;9.08;100.00;101027.75;686619;28;1228;-62
2023/05/14 00:08:32;;;;;;;9.37;7.90;;;;;;;9.09;100.00;101024.28;686427;28;1255;-63
2023/05/14 00:08:53;;;;;;;9.93;7.55;;;;;;;9.11;100.00;101025.19;689683;28;1474;-62
2023/05/14 00:09:13;;;;;;;12.33;7.70;;;;;;;9.10;100.00;101026.03;691985;28;1361;-62
2023/05/14 00:09:34;;;;;;;10.57;7.63;;;;;;;9.10;100.00;101022.56;690747;28;1116;-62
2023/05/14 00:09:54;;;;;;;9.53;7.73;;;;;;;9.08;100.00;101022.53;689056;28;1582;-62
2023/05/14 00:10:16;;;;;;;10.13;8.10;;;;;;;9.07;100.00;101025.13;689172;28;4390;-63
2023/05/14 00:10:36;;;;;;;8.70;7.43;;;;;;;9.04;100.00;101023.38;688989;28;1282;-63
2023/05/14 00:10:57;;;;;;;10.87;7.77;;;;;;;9.12;100.00;101024.28;688740;28;1461;-62
2023/05/14 00:11:18;;;;;;;9.05;7.90;;;;;;;9.12;100.00;101026.03;689247;28;1139;-63
2023/05/14 00:11:38;;;;;;;8.77;7.53;;;;;;;9.10;100.00;101026.03;688837;28;1262;-62
2023/05/14 00:11:59;;;;;;;9.00;7.37;;;;;;;9.09;100.00;101024.28;688161;28;1449;-63
2023/05/14 00:12:19;;;;;;;9.10;7.60;;;;;;;9.05;100.00;101027.72;689470;28;1468;-62
2023/05/14 00:12:39;;;;;;;9.03;7.50;;;;;;;8.99;100.00;101025.94;688777;28;1256;-61
2023/05/14 00:13:00;;;;;;;9.30;7.43;;;;;;;8.98;100.00;101020.72;688078;28;1659;-62
2023/05/14 00:13:20;;;;;;;10.32;7.63;;;;;;;8.96;100.00;101028.53;689545;28;4869;-62
2023/05/14 00:13:41;;;;;;;9.63;7.83;;;;;;;8.94;100.00;101032.00;689727;28;1461;-63
2023/05/14 00:14:01;;;;;;;9.98;7.80;;;;;;;8.92;100.00;101021.56;687405;28;1576;-62
2023/05/14 00:14:21;;;;;;;9.47;7.60;;;;;;;8.92;100.00;101023.31;689772;28;1552;-62
2023/05/14 00:14:42;;;;;;;9.98;7.60;;;;;;;8.90;100.00;101027.63;688827;28;1303;-63
2023/05/14 00:15:02;;;;;;;9.53;7.40;;;;;;;8.90;100.00;101022.41;687257;28;1501;-62
2023/05/14 00:15:23;;;;;;;9.75;7.80;;;;;;;8.91;100.00;101017.19;689806;28;1354;-62
2023/05/14 00:15:43;;;;;;;10.37;7.83;;;;;;;8.91;100.00;101022.41;689585;28;1294;-62
2023/05/14 00:16:04;;;;;;;11.20;7.72;;;;;;;8.90;100.00;101023.25;687893;28;1544;-62
2023/05/14 00:16:25;;;;;;;10.30;7.70;;;;;;;8.85;100.00;101020.63;688871;28;4381;-62
2023/05/14 00:16:45;;;;;;;8.60;7.53;;;;;;;8.78;100.00;101016.22;687352;28;3004;-62
2023/05/14 00:17:05;;;;;;;9.00;7.60;;;;;;;8.78;100.00;101018.84;687801;28;1480;-63
2023/05/14 00:17:26;;;;;;;9.20;7.70;;;;;;;8.78;100.00;101024.06;690066;28;1302;-62
2023/05/14 00:17:46;;;;;;;9.40;7.70;;;;;;;8.78;100.00;101018.84;689868;28;1343;-62
2023/05/14 00:18:10;;;;;;;9.50;7.57;;;;;;;8.76;100.00;101020.53;688860;28;1515;-62
2023/05/14 00:18:31;;;;;;;10.88;7.97;;;;;;;8.77;100.00;101022.28;689424;28;1093;-63
2023/05/14 00:18:51;;;;;;;9.40;7.75;;;;;;;8.77;100.00;101022.28;688239;28;1574;-62
2023/05/14 00:19:12;;;;;;;9.70;8.00;;;;;;;8.78;100.00;101023.19;688899;28;4560;-62
2023/05/14 00:19:32;;;;;;;9.50;7.68;;;;;;;8.80;100.00;101027.53;689432;28;1091;-62
2023/05/14 00:19:53;;;;;;;9.73;7.90;;;;;;;8.80;100.00;101018.84;688315;28;1906;-62
2023/05/14 00:20:13;;;;;;;9.70;7.97;;;;;;;8.79;100.00;101020.59;689423;28;1178;-62
2023/05/14 00:20:34;;;;;;;9.90;7.80;;;;;;;8.80;100.00;101019.72;688927;28;1205;-62
2023/05/14 00:20:54;;;;;;;9.02;7.78;;;;;;;8.80;100.00;101022.31;687397;28;1500;-63
2023/05/14 00:21:20;;;;;;;8.90;7.80;;;;;;;8.80;100.00;101018.84;689733;28;1378;-62
2023/05/14 00:21:40;;;;;;;9.43;7.95;;;;;;;8.82;100.00;101019.72;689207;28;1438;-62
2023/05/14 00:22:01;;;;;;;10.00;8.17;;;;;;;8.82;100.00;101019.72;687652;28;2259;-62
2023/05/14 00:22:21;;;;;;;10.00;7.90;;;;;;;8.82;100.00;101018.00;689081;28;4304;-62
2023/05/14 00:22:41;;;;;;;10.13;7.80;;;;;;;8.83;100.00;101017.16;688853;28;1445;-63
2023/05/14 00:23:02;;;;;;;10.43;7.80;;;;;;;8.84;100.00;101024.09;686707;28;1441;-62
2023/05/14 00:23:22;;;;;;;8.77;7.73;;;;;;;8.84;100.00;101018.88;690238;28;1179;-62
2023/05/14 00:23:43;;;;;;;9.95;8.00;;;;;;;8.84;100.00;101016.25;690087;28;1148;-62
2023/05/14 00:24:03;;;;;;;9.63;7.60;;;;;;;8.84;100.00;101018.00;687027;28;1646;-62
2023/05/14 00:24:24;;;;;;;10.65;7.82;;;;;;;8.83;100.00;101017.16;689769;28;1076;-62
2023/05/14 00:24:44;;;;;;;10.47;7.63;;;;;;;8.84;100.00;101018.00;689276;28;1511;-62
2023/05/14 00:25:06;;;;;;;8.85;7.68;;;;;;;8.82;100.00;101020.59;687400;28;1116;-62
2023/05/14 00:25:26;;;;;;;8.88;7.57;;;;;;;8.81;100.00;101013.66;689250;28;5593;-62
2023/05/14 00:25:47;;;;;;;8.87;6.90;;;;;;;8.78;100.00;101012.75;689405;28;1243;-62
2023/05/14 00:26:07;;;;;;;9.65;7.38;;;;;;;8.76;100.00;101012.72;688322;28;1495;-62
2023/05/14 00:26:28;;;;;;;8.80;7.70;;;;;;;8.73;100.00;101015.31;688968;28;1215;-62
2023/05/14 00:26:50;;;;;;;10.07;7.53;;;;;;;8.73;100.00;101012.72;689907;28;1124;-62
2023/05/14 00:27:11;;;;;;;9.88;8.25;;;;;;;8.78;100.00;101007.56;689651;28;1474;-63
2023/05/14 00:27:31;;;;;;;11.18;7.93;;;;;;;8.82;100.00;101010.19;689239;28;1339;-62
2023/05/14 00:27:51;;;;;;;10.13;7.73;;;;;;;8.83;100.00;101013.66;687483;28;1494;-62
2023/05/14 00:28:12;;;;;;;9.05;7.63;;;;;;;8.78;100.00;101016.22;686859;28;4443;-63
2023/05/14 00:28:32;;;;;;;8.83;7.57;;;;;;;8.78;100.00;101007.56;684369;28;1351;-62
2023/05/14 00:28:53;;;;;;;8.50;7.37;;;;;;;8.77;100.00;101004.06;683586;28;1239;-62
2023/05/14 00:29:13;;;;;;;8.40;7.33;;;;;;;8.72;100.00;101008.34;684021;28;1346;-62
2023/05/14 00:29:33;;;;;;;8.33;7.33;;;;;;;8.72;100.00;101010.94;683604;28;1323;-62
2023/05/14 00:29:54;;;;;;;8.85;7.53;;;;;;;8.71;100.00;101011.84;683006;28;1482;-63
2023/05/14 00:30:14;;;;;;;8.60;7.57;;;;;;;8.70;100.00;101017.91;686596;28;1189;-62
2023/05/14 00:30:34;;;;;;;9.33;7.43;;;;;;;8.68;100.00;101011.78;688249;28;1303;-63
2023/05/14 00:30:55;;;;;;;10.40;7.63;;;;;;;8.65;100.00;101009.16;688883;28;1509;-62
2023/05/14 00:31:16;;;;;;;9.82;7.40;;;;;;;8.67;100.00;101007.47;686529;28;4496;-63
2023/05/14 00:31:39;;;;;;;9.63;7.47;;;;;;;8.68;100.00;101014.38;684544;28;1350;-62
2023/05/14 00:31:59;;;;;;;8.23;7.22;;;;;;;8.67;100.00;101005.72;683088;28;1737;-62
2023/05/14 00:32:20;;;;;;;8.57;7.53;;;;;;;8.68;100.00;101006.56;684401;28;1355;-62
2023/05/14 00:32:40;;;;;;;9.05;7.80;;;;;;;8.68;100.00;101007.47;685662;28;1394;-62
2023/05/14 00:33:01;;;;;;;8.40;7.37;;;;;;;8.65;100.00;101009.16;684207;28;1883;-62
2023/05/14 00:33:21;;;;;;;8.40;7.27;;;;;;;8.63;100.00;101008.28;683552;28;1853;-62
2023/05/14 00:33:41;;;;;;;8.32;7.28;;;;;;;8.64;100.00;101010.00;684059;28;1410;-62
2023/05/14 00:34:02;;;;;;;8.20;7.10;;;;;;;8.65;100.00;101012.66;683014;28;1833;-62
2023/05/14 00:34:23;;;;;;;9.18;7.20;;;;;;;8.62;100.00;101009.13;683260;28;4255;-62
2023/05/14 00:34:43;;;;;;;9.23;7.65;;;;;;;8.61;100.00;101007.38;683980;28;1208;-62
2023/05/14 00:35:04;;;;;;;8.50;7.40;;;;;;;8.60;100.00;101008.22;683028;28;1528;-62
2023/05/14 00:35:25;;;;;;;8.90;7.40;;;;;;;8.58;100.00;101005.63;685983;28;1244;-62
2023/05/14 00:35:45;;;;;;;8.63;7.22;;;;;;;8.56;100.00;101006.50;686360;28;1204;-62
2023/05/14 00:36:07;;;;;;;9.73;7.20;;;;;;;8.53;100.00;101007.34;684958;28;1821;-63
2023/05/14 00:36:28;;;;;;;9.50;7.38;;;;;;;8.54;100.00;101009.06;686303;28;1165;-62
2023/05/14 00:36:50;;;;;;;8.77;7.10;;;;;;;8.56;100.00;101011.72;686082;28;1233;-62
2023/05/14 00:37:10;;;;;;;8.18;6.90;;;;;;;8.55;100.00;101007.34;685932;28;4386;-62
2023/05/14 00:37:30;;;;;;;10.00;7.47;;;;;;;8.55;100.00;101008.22;686104;28;1374;-63
2023/05/14 00:37:51;;;;;;;9.57;7.32;;;;;;;8.54;100.00;101008.19;681771;28;1613;-62
2023/05/14 00:38:15;;;;;;;10.63;7.40;;;;;;;8.52;100.00;101008.19;684250;28;1269;-62
2023/05/14 00:38:36;;;;;;;8.70;7.20;;;;;;;8.53;100.00;101007.34;678169;29;1626;-62
2023/05/14 00:38:56;;;;;;;10.00;7.50;;;;;;;8.51;100.00;101006.44;674118;29;1616;-62
2023/05/14 00:39:16;;;;;;;8.93;7.53;;;;;;;8.47;100.00;101005.56;675377;29;5714;-62
2023/05/14 00:39:37;;;;;;;8.57;7.67;;;;;;;8.47;100.00;101012.47;679576;29;1241;-62
2023/05/14 00:39:57;;;;;;;8.38;7.22;;;;;;;8.50;100.00;101008.19;679988;28;1993;-62
2023/05/14 00:40:18;;;;;;;8.70;7.37;;;;;;;8.49;100.00;101010.78;681071;28;4433;-63
2023/05/14 00:40:42;;;;;;;10.25;7.70;;;;;;;8.49;100.00;101006.41;684835;28;1410;-62
2023/05/14 00:41:03;;;;;;;11.00;7.65;;;;;;;8.48;100.00;101002.06;685471;28;1656;-62
2023/05/14 00:41:23;;;;;;;8.93;7.30;;;;;;;8.46;100.00;101006.41;683923;28;1611;-63
2023/05/14 00:41:44;;;;;;;8.85;7.60;;;;;;;8.43;100.00;101006.34;683982;28;1311;-62
2023/05/14 00:42:05;;;;;;;8.57;7.43;;;;;;;8.46;100.00;101003.78;679572;28;1428;-63
2023/05/14 00:42:26;;;;;;;8.70;7.40;;;;;;;8.44;100.00;101007.22;684452;28;1192;-62
2023/05/14 00:42:46;;;;;;;8.40;7.20;;;;;;;8.42;100.00;101007.19;684499;28;1424;-62
2023/05/14 00:43:06;;;;;;;8.10;7.30;;;;;;;8.39;100.00;101008.88;681853;28;4390;-61
2023/05/14 00:43:27;;;;;;;8.53;7.50;;;;;;;8.41;100.00;101000.22;689750;28;1279;-62
2023/05/14 00:43:47;;;;;;;9.10;7.50;;;;;;;8.41;100.00;101012.41;686345;28;1252;-62
2023/05/14 00:44:08;;;;;;;8.95;7.38;;;;;;;8.40;100.00;101008.03;681898;28;1478;-61
2023/05/14 00:44:28;;;;;;;8.67;7.77;;;;;;;8.41;100.00;101001.97;684228;28;1745;-62
2023/05/14 00:44:48;;;;;;;10.37;7.73;;;;;;;8.39;100.00;101003.69;683943;28;1253;-63
2023/05/14 00:45:09;;;;;;;9.55;7.45;;;;;;;8.41;100.00;101001.97;680231;28;1524;-63
2023/05/14 00:45:29;;;;;;;8.93;7.43;;;;;;;8.42;100.00;101001.97;680166;28;1245;-62
2023/05/14 00:45:52;;;;;;;9.30;7.10;;;;;;;8.45;100.00;100998.56;682286;28;1558;-63
2023/05/14 00:46:13;;;;;;;8.98;7.20;;;;;;;8.44;100.00;101002.00;683611;28;4290;-62
2023/05/14 00:46:33;;;;;;;8.43;7.22;;;;;;;8.41;100.00;101001.97;682164;28;1295;-63
2023/05/14 00:46:54;;;;;;;9.43;7.73;;;;;;;8.43;100.00;100993.31;683903;28;1446;-63
2023/05/14 00:47:15;;;;;;;9.70;7.47;;;;;;;8.45;100.00;101002.03;686614;28;1073;-62
2023/05/14 00:47:38;;;;;;;8.83;7.67;;;;;;;8.47;100.00;100997.72;686435;28;1335;-62
2023/05/14 00:47:58;;;;;;;9.40;7.20;;;;;;;8.51;100.00;100998.63;685556;28;1838;-62
2023/05/14 00:48:19;;;;;;;9.97;7.60;;;;;;;8.46;100.00;101001.19;685108;28;1301;-62
2023/05/14 00:48:40;;;;;;;8.95;7.65;;;;;;;8.45;100.00;100996.81;686474;28;1330;-62
2023/05/14 00:49:01;;;;;;;8.83;7.40;;;;;;;8.47;100.00;100996.84;683792;28;1509;-62
2023/05/14 00:49:22;;;;;;;8.43;7.25;;;;;;;8.50;100.00;100994.25;686595;28;4411;-62
2023/05/14 00:49:42;;;;;;;9.20;7.68;;;;;;;8.50;100.00;100997.75;682184;28;1371;-63
2023/05/14 00:50:04;;;;;;;8.95;7.50;;;;;;;8.50;100.00;100995.16;680376;28;1578;-62
2023/05/14 00:50:24;;;;;;;8.45;7.03;;;;;;;8.50;100.00;100999.47;681477;28;1161;-62
2023/05/14 00:50:45;;;;;;;8.68;7.70;;;;;;;8.49;100.00;101001.22;682208;28;1156;-63
2023/05/14 00:51:06;;;;;;;10.32;7.55;;;;;;;8.48;100.00;100991.63;683041;28;1581;-62
2023/05/14 00:51:27;;;;;;;10.40;7.57;;;;;;;8.46;100.00;100995.97;681542;28;1352;-63
2023/05/14 00:51:47;;;;;;;9.03;7.30;;;;;;;8.42;100.00;100996.78;683330;28;1348;-62
2023/05/14 00:52:10;;;;;;;8.88;7.20;;;;;;;8.48;100.00;100998.59;678796;28;4616;-62
2023/05/14 00:52:31;;;;;;;8.25;7.30;;;;;;;8.49;100.00;100997.75;683061;28;1152;-62
2023/05/14 00:52:51;;;;;;;8.70;7.00;;;;;;;8.49;100.00;100992.53;680246;28;1524;-62
2023/05/14 00:53:12;;;;;;;9.00;7.07;;;;;;;8.46;100.00;100998.59;682139;28;1291;-62
2023/05/14 00:53:32;;;;;;;8.98;7.18;;;;;;;8.44;100.00;100997.66;682700;28;1979;-63
2023/05/14 00:53:54;;;;;;;9.50;7.40;;;;;;;8.42;100.00;100999.38;683052;28;1499;-62
2023/05/14 00:54:15;;;;;;;10.15;7.53;;;;;;;8.56;100.00;100996.94;683005;28;1247;-62
2023/05/14 00:54:36;;;;;;;9.50;7.25;;;;;;;8.60;100.00;100992.59;682064;28;1280;-62
2023/05/14 00:54:57;;;;;;;7.93;7.10;;;;;;;8.54;100.00;100989.97;679602;28;1635;-62
2023/05/14 00:55:18;;;;;;;8.32;6.50;;;;;;;8.50;100.00;100992.53;679170;28;4527;-62
2023/05/14 00:55:41;;;;;;;8.57;7.20;;;;;;;8.47;100.00;101007.25;681350;29;1566;-63
2023/05/14 00:56:02;;;;;;;9.65;7.20;;;;;;;8.55;100.00;100999.53;680787;28;1551;-62
2023/05/14 00:56:23;;;;;;;9.95;7.47;;;;;;;8.65;100.00;100997.03;681107;29;1268;-63
2023/05/14 00:56:45;;;;;;;9.73;7.47;;;;;;;8.62;100.00;101001.31;683094;28;1345;-61
2023/05/14 00:57:05;;;;;;;9.45;7.28;;;;;;;8.56;100.00;100996.94;683408;28;1625;-61
2023/05/14 00:57:26;;;;;;;9.15;7.38;;;;;;;8.52;100.00;100993.41;685003;28;1217;-62
2023/05/14 00:57:47;;;;;;;8.53;7.23;;;;;;;8.46;100.00;101001.19;684720;28;1327;-62
2023/05/14 00:58:12;;;;;;;9.70;7.20;;;;;;;8.39;100.00;100998.47;685146;28;4463;-62
2023/05/14 00:58:33;;;;;;;9.38;7.30;;;;;;;8.33;100.00;100992.34;688841;28;1270;-63
2023/05/14 00:58:53;;;;;;;10.55;7.65;;;;;;;8.31;100.00;100985.38;689693;28;1620;-62
2023/05/14 00:59:13;;;;;;;9.80;7.60;;;;;;;8.31;100.00;100998.41;689683;28;1227;-62
2023/05/14 00:59:34;;;;;;;9.17;7.50;;;;;;;8.31;100.00;100993.19;689580;28;1248;-62
2023/05/14 00:59:55;;;;;;;8.90;7.47;;;;;;;8.30;100.00;100996.66;684977;28;1920;-62
2023/05/14 01:00:19;;;;;;;9.13;7.30;;;;;;;8.29;100.00;100997.50;683687;28;1372;-62
2023/05/14 01:00:40;;;;;;;9.60;7.30;;;;;;;8.27;100.00;100996.63;685894;28;1590;-62
2023/05/14 01:01:00;;;;;;;9.73;7.50;;;;;;;8.21;100.00;100996.56;682621;28;2072;-62
2023/05/14 01:01:21;;;;;;;9.85;7.80;;;;;;;8.16;100.00;100994.78;683075;28;4370;-61
2023/05/14 01:01:41;;;;;;;10.30;7.88;;;;;;;8.12;100.00;100994.72;684719;28;1260;-62
2023/05/14 01:02:02;;;;;;;9.87;7.63;;;;;;;8.10;100.00;100996.44;685397;28;1555;-62
2023/05/14 01:02:22;;;;;;;9.55;7.35;;;;;;;8.14;100.00;100995.59;688895;28;1350;-62
2023/05/14 01:02:43;;;;;;;8.87;7.20;;;;;;;8.14;100.00;100993.91;689048;28;1390;-63
2023/05/14 01:03:06;;;;;;;10.10;7.95;;;;;;;8.12;100.00;101000.81;687475;28;1582;-62
2023/05/14 01:03:29;;;;;;;9.57;7.90;;;;;;;8.15;100.00;100999.97;690149;28;1354;-62
2023/05/14 01:03:52;;;;;;;9.50;8.32;;;;;;;8.19;100.00;100997.41;686970;28;1283;-62
2023/05/14 01:04:12;;;;;;;10.70;8.15;;;;;;;8.20;100.00;101003.50;684849;28;4344;-62
2023/05/14 01:04:34;;;;;;;11.93;8.13;;;;;;;8.25;100.00;100995.72;684214;28;1194;-62
2023/05/14 01:04:54;;;;;;;11.98;7.97;;;;;;;8.29;100.00;100990.59;682528;28;1710;-62
2023/05/14 01:05:15;;;;;;;9.80;7.68;;;;;;;8.27;100.00;100994.03;684488;28;1238;-63
2023/05/14 01:05:44;;;;;;;9.47;7.87;;;;;;;8.21;100.00;100993.94;687753;28;1282;-62
2023/05/14 01:06:19;;;;;;;9.85;8.18;;;;;;;8.18;100.00;100994.78;684714;28;1347;-62
2023/05/14 01:07:04;;;;;;;11.20;7.75;;;;;;;8.22;100.00;100993.09;683841;28;1379;-62
2023/05/14 01:08:06;;;;;;;10.43;8.07;;;;;;;8.24;100.00;100993.97;684529;28;5279;-62
2023/05/14 01:08:50;;;;;;;10.13;8.23;;;;;;;8.26;100.00;100992.28;682607;28;1102;-63
2023/05/14 01:09:41;;;;;;;10.90;8.25;;;;;;;8.25;100.00;100990.50;684001;28;1256;-63
2023/05/14 01:10:09;;;;;;;9.20;7.70;;;;;;;8.27;100.00;100988.81;685267;28;1578;-62
2023/05/14 01:10:42;;;;;;;9.00;7.82;;;;;;;8.24;100.00;100991.38;685250;28;4788;-62
2023/05/14 01:11:16;;;;;;;9.80;7.68;;;;;;;8.23;100.00;100992.25;686735;28;1462;-62
2023/05/14 01:11:52;;;;;;;9.43;7.78;;;;;;;8.29;100.00;100987.97;685776;28;1275;-62
2023/05/14 01:12:34;;;;;;;9.73;7.55;;;;;;;8.30;100.00;100986.22;686714;28;1279;-62
2023/05/14 01:13:10;;;;;;;9.30;7.68;;;;;;;8.32;100.00;100988.00;684892;28;3139;-62
2023/05/14 01:13:58;;;;;;;8.35;7.30;;;;;;;8.26;100.00;100987.06;684476;28;5423;-62
2023/05/14 01:14:24;;;;;;;9.10;7.68;;;;;;;8.23;100.00;100984.44;688358;28;1322;-62
2023/05/14 01:14:59;;;;;;;9.88;7.88;;;;;;;8.38;100.00;100987.19;688818;28;1295;-62
2023/05/14 01:15:29;;;;;;;9.50;7.60;;;;;;;8.55;100.00;100989.09;683781;28;2185;-62
2023/05/14 01:15:55;;;;;;;9.13;7.78;;;;;;;8.52;100.00;100993.41;684134;28;1376;-62
2023/05/14 01:16:17;;;;;;;8.82;7.43;;;;;;;8.43;100.00;100987.22;684632;28;4391;-63
2023/05/14 01:16:42;;;;;;;8.32;7.43;;;;;;;8.38;100.00;100987.19;688068;28;1263;-63
2023/05/14 01:17:03;;;;;;;8.75;7.63;;;;;;;8.31;100.00;100982.78;682968;28;1908;-63
2023/05/14 01:17:27;;;;;;;9.23;8.00;;;;;;;8.27;100.00;100983.59;687202;28;1365;-63
2023/05/14 01:17:53;;;;;;;9.77;8.15;;;;;;;8.33;100.00;100978.44;686088;28;1509;-62
2023/05/14 01:18:17;;;;;;;9.77;7.97;;;;;;;8.49;100.00;100980.38;687197;28;1291;-62
2023/05/14 01:18:40;;;;;;;8.75;7.40;;;;;;;8.48;100.00;100983.81;686189;28;1424;-62
2023/05/14 01:19:06;;;;;;;9.98;7.60;;;;;;;8.43;100.00;100985.50;684637;28;1585;-62
2023/05/14 01:19:38;;;;;;;10.57;8.13;;;;;;;8.32;100.00;100981.91;688544;28;5002;-61
2023/05/14 01:19:59;;;;;;;8.95;7.75;;;;;;;8.26;100.00;100976.66;687535;28;1934;-63
2023/05/14 01:20:20;;;;;;;9.20;7.82;;;;;;;8.23;100.00;100982.69;684415;28;2108;-61
2023/05/14 01:20:42;;;;;;;9.63;7.95;;;;;;;8.37;100.00;100980.22;684185;28;1545;-62
2023/05/14 01:21:02;;;;;;;9.98;7.90;;;;;;;8.47;100.00;100987.31;679807;28;1621;-61
2023/05/14 01:21:43;;;;;;;10.13;8.07;;;;;;;8.39;100.00;100988.03;684145;28;1243;-61
2023/05/14 01:22:07;;;;;;;10.85;8.02;;;;;;;8.30;100.00;100978.41;682862;28;1984;-62
2023/05/14 01:22:27;;;;;;;9.38;8.10;;;;;;;8.23;100.00;100979.22;689077;28;4817;-61
2023/05/14 01:22:47;;;;;;;9.13;7.67;;;;;;;8.23;100.00;100987.03;689198;28;1354;-61
2023/05/14 01:23:08;;;;;;;9.57;7.80;;;;;;;8.27;100.00;100978.41;687071;28;1544;-63
2023/05/14 01:23:28;;;;;;;10.30;8.07;;;;;;;8.37;100.00;100981.97;686157;28;1259;-62
2023/05/14 01:23:49;;;;;;;11.05;8.10;;;;;;;8.41;100.00;100982.00;685981;28;1229;-62
2023/05/14 01:24:09;;;;;;;11.17;7.83;;;;;;;8.37;100.00;100980.22;684652;28;1614;-61
2023/05/14 01:24:29;;;;;;;10.23;7.60;;;;;;;8.35;100.00;100984.56;686437;28;2861;-61
2023/05/14 01:24:50;;;;;;;9.40;7.60;;;;;;;8.31;100.00;100980.19;685881;28;1301;-62
2023/05/14 01:25:10;;;;;;;10.03;7.93;;;;;;;8.29;100.00;100977.56;685281;28;4405;-61
2023/05/14 01:25:31;;;;;;;9.90;7.80;;;;;;;8.24;100.00;100974.03;686781;28;1447;-61
2023/05/14 01:25:51;;;;;;;8.83;7.40;;;;;;;8.26;100.00;100980.09;685620;28;1680;-61
2023/05/14 01:26:12;;;;;;;10.63;7.73;;;;;;;8.32;100.00;100976.69;684562;28;1231;-61
2023/05/14 01:26:32;;;;;;;9.67;7.90;;;;;;;8.32;100.00;100981.91;688372;28;1275;-61
2023/05/14 01:27:00;;;;;;;9.85;7.78;;;;;;;8.28;100.00;100985.31;689057;28;1275;-62
2023/05/14 01:27:39;;;;;;;10.45;7.88;;;;;;;8.22;100.00;100980.06;689058;28;1382;-62
2023/05/14 01:28:11;;;;;;;9.65;8.13;;;;;;;8.21;100.00;100978.31;686048;28;1450;-61
2023/05/14 01:28:35;;;;;;;9.57;7.55;;;;;;;8.24;100.00;100980.94;685023;28;4943;-61
2023/05/14 01:29:12;;;;;;;11.02;8.32;;;;;;;8.26;100.00;100979.25;684926;28;1304;-61
2023/05/14 01:29:36;;;;;;;10.25;7.65;;;;;;;8.21;100.00;100980.91;685256;28;1888;-62
2023/05/14 01:30:16;;;;;;;9.68;7.80;;;;;;;8.17;100.00;100982.63;684190;28;2146;-63
2023/05/14 01:30:45;;;;;;;9.68;8.00;;;;;;;8.18;100.00;100982.66;685947;28;2136;-61
2023/05/14 01:31:18;;;;;;;10.15;8.07;;;;;;;8.18;100.00;100979.16;685059;28;1651;-62
2023/05/14 01:31:42;;;;;;;9.65;7.88;;;;;;;8.16;100.00;100976.53;685357;28;5900;-63
2023/05/14 01:32:06;;;;;;;10.10;8.07;;;;;;;8.14;100.00;100983.47;685318;28;1529;-63
2023/05/14 01:32:29;;;;;;;9.23;7.60;;;;;;;8.12;100.00;100974.75;686712;28;1243;-62
2023/05/14 01:32:55;;;;;;;9.05;7.57;;;;;;;8.13;100.00;100979.13;686995;28;1280;-62
2023/05/14 01:33:18;;;;;;;9.80;7.65;;;;;;;8.10;100.00;100980.81;687040;28;1259;-62
2023/05/14 01:33:41;;;;;;;9.95;8.07;;;;;;;8.08;100.00;100977.31;685586;28;1241;-62
2023/05/14 01:34:04;;;;;;;8.95;7.68;;;;;;;8.06;100.00;100974.72;682356;28;1641;-62
2023/05/14 01:34:27;;;;;;;9.30;7.80;;;;;;;8.08;100.00;100972.97;683517;28;4333;-62
2023/05/14 01:34:49;;;;;;;9.20;7.63;;;;;;;8.11;100.00;100967.84;682214;28;1347;-62
2023/05/14 01:35:10;;;;;;;8.55;7.32;;;;;;;8.11;100.00;100970.44;682657;28;1684;-62
2023/05/14 01:35:31;;;;;;;9.77;7.57;;;;;;;8.12;100.00;100969.56;682366;28;1261;-62
2023/05/14 01:35:53;;;;;;;8.95;7.97;;;;;;;8.10;100.00;100970.38;684773;28;1373;-62
2023/05/14 01:36:14;;;;;;;9.88;8.27;;;;;;;8.12;100.00;100966.09;687126;28;1252;-61
2023/05/14 01:36:39;;;;;;;10.48;8.02;;;;;;;8.14;100.00;100969.56;685582;28;1224;-63
2023/05/14 01:37:00;;;;;;;9.98;7.78;;;;;;;8.13;100.00;100971.31;684727;28;1549;-61
2023/05/14 01:37:21;;;;;;;9.73;8.27;;;;;;;8.10;100.00;100968.69;682966;28;4361;-62
2023/05/14 01:37:43;;;;;;;8.77;7.68;;;;;;;8.10;100.00;100966.06;681177;28;1457;-62
2023/05/14 01:38:09;;;;;;;9.70;7.78;;;;;;;8.15;100.00;100973.94;680084;28;1559;-62
2023/05/14 01:38:32;;;;;;;10.00;7.95;;;;;;;8.14;100.00;100973.06;681894;28;1519;-62
2023/05/14 01:38:55;;;;;;;9.73;7.88;;;;;;;8.13;100.00;100970.44;682008;28;1530;-61
2023/05/14 01:39:16;;;;;;;10.13;7.75;;;;;;;8.13;100.00;100970.44;686256;28;5191;-62
2023/05/14 01:39:37;;;;;;;9.35;7.90;;;;;;;8.08;100.00;100972.97;686462;28;1299;-62
2023/05/14 01:39:59;;;;;;;9.75;7.45;;;;;;;8.04;100.00;100971.19;684386;28;1987;-63
2023/05/14 01:40:20;;;;;;;10.35;7.50;;;;;;;8.03;100.00;100969.47;682503;28;4503;-61
2023/05/14 01:40:40;;;;;;;9.75;8.15;;;;;;;8.03;100.00;100974.69;683187;28;1372;-62
2023/05/14 01:41:02;;;;;;;9.57;7.63;;;;;;;8.04;100.00;100970.34;682398;28;1539;-62
2023/05/14 01:41:24;;;;;;;9.60;7.53;;;;;;;8.01;100.00;100965.97;681627;28;1502;-62
2023/05/14 01:41:45;;;;;;;9.13;7.72;;;;;;;8.00;100.00;100970.31;676172;29;1309;-62
2023/05/14 01:42:06;;;;;;;8.80;7.60;;;;;;;7.99;100.00;100968.56;676696;29;1559;-61
2023/05/14 01:42:28;;;;;;;11.10;7.90;;;;;;;8.00;100.00;100969.41;681646;28;1226;-62
2023/05/14 01:42:50;;;;;;;9.35;7.60;;;;;;;8.01;100.00;100973.78;681538;29;1344;-61
2023/05/14 01:43:11;;;;;;;9.52;7.65;;;;;;;8.00;100.00;100964.22;680578;28;4364;-62
2023/05/14 01:43:32;;;;;;;9.43;7.63;;;;;;;7.96;100.00;100967.63;682484;28;1276;-63
2023/05/14 01:43:53;;;;;;;9.10;7.55;;;;;;;7.92;100.00;100971.06;683765;28;1332;-62
2023/05/14 01:44:13;;;;;;;11.18;7.82;;;;;;;7.88;100.00;100964.09;683716;28;1323;-62
2023/05/14 01:44:34;;;;;;;9.43;7.45;;;;;;;7.91;100.00;100969.34;681124;28;1244;-61
2023/05/14 01:44:55;;;;;;;10.82;7.65;;;;;;;7.93;100.00;100967.63;677845;29;1728;-61
2023/05/14 01:45:15;;;;;;;10.10;7.53;;;;;;;7.94;100.00;100967.63;681718;28;1383;-62
2023/05/14 01:45:36;;;;;;;9.23;7.70;;;;;;;7.92;100.00;100971.97;683562;28;1351;-62
2023/05/14 01:45:57;;;;;;;8.98;7.57;;;;;;;7.92;100.00;100965.88;683213;28;1589;-61
2023/05/14 01:46:19;;;;;;;9.32;7.60;;;;;;;7.90;100.00;100967.59;684933;28;4489;-63
2023/05/14 01:46:39;;;;;;;9.05;7.57;;;;;;;7.90;100.00;100967.59;683783;28;1486;-63
2023/05/14 01:47:00;;;;;;;10.23;7.47;;;;;;;7.87;100.00;100970.16;685178;28;1505;-62